createdAt,value
2022-11-17T00:00:20.752Z,4.80
2022-11-17T00:02:48.676Z,4.75
2022-11-17T00:05:16.750Z,4.55
2022-11-17T00:07:45.787Z,4.65
2022-11-17T00:10:14.168Z,4.50
2022-11-17T00:13:00.954Z,5.13
2022-11-17T00:15:28.825Z,5.20
2022-11-17T00:18:19.606Z,4.53
2022-11-17T00:21:04.817Z,4.57
2022-11-17T00:23:46.317Z,4.57
2022-11-17T00:26:15.627Z,4.67
2022-11-17T00:28:45.041Z,4.93
2022-11-17T00:31:31.209Z,5.20
2022-11-17T00:34:08.553Z,5.50
2022-11-17T00:36:39.060Z,5.83
2022-11-17T00:39:07.458Z,6.23
2022-11-17T00:41:35.045Z,6.00
2022-11-17T00:44:04.401Z,6.43
2022-11-17T00:46:32.709Z,7.10
2022-11-17T00:49:00.599Z,7.60
2022-11-17T00:51:28.474Z,8.05
2022-11-17T00:53:56.056Z,8.27
2022-11-17T00:56:24.169Z,7.67
2022-11-17T00:58:51.922Z,7.30
2022-11-17T01:01:21.407Z,7.47
2022-11-17T01:03:49.543Z,7.40
2022-11-17T01:06:21.246Z,7.45
2022-11-17T01:08:48.796Z,6.83
2022-11-17T01:11:18.692Z,6.80
2022-11-17T01:13:48.515Z,7.30
2022-11-17T01:16:17.899Z,7.33
2022-11-17T01:18:48.421Z,7.10
2022-11-17T01:21:18.543Z,6.63
2022-11-17T01:23:49.129Z,7.93
2022-11-17T01:26:19.257Z,7.30
2022-11-17T01:28:55.360Z,7.97
2022-11-17T01:31:24.988Z,7.73
2022-11-17T01:33:54.097Z,8.27
2022-11-17T01:36:24.105Z,7.47
2022-11-17T01:38:51.882Z,6.87
2022-11-17T01:41:21.526Z,6.67
2022-11-17T01:43:51.195Z,5.90
2022-11-17T01:46:27.868Z,5.67
2022-11-17T01:49:00.897Z,5.40
2022-11-17T01:51:30.975Z,5.33
2022-11-17T01:53:59.348Z,4.27
2022-11-17T01:56:30.927Z,4.43
2022-11-17T01:59:03.983Z,4.90
2022-11-17T02:01:32.978Z,5.10
2022-11-17T02:04:02.381Z,4.80
2022-11-17T02:06:33.107Z,4.90
2022-11-17T02:09:03.694Z,4.73
2022-11-17T02:11:35.972Z,4.87
2022-11-17T02:14:05.309Z,4.87
2022-11-17T02:16:32.921Z,4.40
2022-11-17T02:19:01.913Z,4.10
2022-11-17T02:21:57.309Z,4.37
2022-11-17T02:25:00.685Z,3.70
2022-11-17T02:28:00.693Z,4.50
2022-11-17T02:30:35.587Z,4.00
2022-11-17T02:33:07.821Z,4.17
2022-11-17T02:35:42.787Z,3.67
2022-11-17T02:38:21.599Z,3.90
2022-11-17T02:40:52.886Z,3.50
2022-11-17T02:43:43.085Z,4.00
2022-11-17T02:46:15.186Z,3.67
2022-11-17T02:48:47.195Z,4.47
2022-11-17T02:51:20.162Z,4.20
2022-11-17T02:53:48.944Z,4.53
2022-11-17T02:58:45.774Z,4.50
2022-11-17T03:01:40.266Z,4.50
2022-11-17T03:04:24.093Z,4.20
2022-11-17T03:07:02.324Z,4.97
2022-11-17T03:09:39.737Z,4.05
2022-11-17T03:12:11.955Z,4.40
2022-11-17T03:14:52.754Z,4.23
2022-11-17T03:17:28.167Z,4.40
2022-11-17T03:20:00.142Z,3.90
2022-11-17T03:22:34.487Z,4.33
2022-11-17T03:25:06.137Z,4.50
2022-11-17T03:27:38.124Z,3.63
2022-11-17T03:30:10.235Z,3.50
2022-11-17T03:32:41.160Z,3.60
2022-11-17T03:35:12.166Z,3.37
2022-11-17T03:37:44.486Z,3.80
2022-11-17T03:40:14.919Z,3.80
2022-11-17T03:42:52.503Z,2.93
2022-11-17T03:45:25.451Z,3.43
2022-11-17T03:47:59.551Z,2.90
2022-11-17T03:50:32.126Z,3.10
2022-11-17T03:53:00.425Z,2.90
2022-11-17T03:55:35.897Z,3.47
2022-11-17T03:58:08.523Z,2.40
2022-11-17T04:00:40.413Z,3.10
2022-11-17T04:03:08.037Z,2.77
2022-11-17T04:05:35.614Z,3.03
2022-11-17T04:08:03.194Z,2.70
2022-11-17T04:10:30.778Z,3.10
2022-11-17T04:13:16.292Z,2.60
2022-11-17T04:15:58.744Z,3.37
2022-11-17T04:18:27.232Z,2.90
2022-11-17T04:20:57.171Z,2.53
2022-11-17T04:23:26.333Z,2.60
2022-11-17T04:26:13.225Z,2.37
2022-11-17T04:28:44.230Z,2.50
2022-11-17T04:31:15.196Z,2.63
2022-11-17T04:33:44.429Z,2.17
2022-11-17T04:36:13.969Z,2.20
2022-11-17T04:38:43.487Z,2.57
2022-11-17T04:41:30.472Z,2.20
2022-11-17T04:43:58.470Z,2.07
2022-11-17T04:46:29.847Z,2.72
2022-11-17T04:48:58.231Z,2.33
2022-11-17T04:51:26.965Z,2.85
2022-11-17T04:56:23.371Z,2.13
2022-11-17T05:01:19.253Z,2.20
2022-11-17T05:03:50.191Z,2.03
2022-11-17T05:06:19.772Z,2.90
2022-11-17T05:08:47.715Z,2.63
2022-11-17T05:11:34.510Z,2.88
2022-11-17T05:14:02.644Z,2.80
2022-11-17T05:16:48.184Z,2.92
2022-11-17T05:19:19.939Z,3.30
2022-11-17T05:21:47.543Z,3.10
2022-11-17T05:24:14.652Z,3.43
2022-11-17T05:26:44.020Z,3.27
2022-11-17T05:29:13.526Z,4.13
2022-11-17T05:31:41.543Z,2.93
2022-11-17T05:34:12.310Z,3.75
2022-11-17T05:36:41.519Z,3.50
2022-11-17T05:39:09.836Z,2.93
2022-11-17T05:41:38.075Z,3.03
2022-11-17T05:44:06.077Z,3.03
2022-11-17T05:46:33.669Z,3.50
2022-11-17T05:49:01.380Z,3.07
2022-11-17T05:51:29.092Z,3.30
2022-11-17T05:53:58.074Z,3.37
2022-11-17T05:56:34.510Z,3.40
2022-11-17T05:59:11.864Z,3.30
2022-11-17T06:01:44.666Z,3.33
2022-11-17T06:04:16.019Z,3.47
2022-11-17T06:06:44.636Z,3.43
2022-11-17T06:09:13.674Z,4.05
2022-11-17T06:11:41.254Z,4.67
2022-11-17T06:14:08.950Z,4.57
2022-11-17T06:16:43.328Z,4.13
2022-11-17T06:19:16.964Z,3.93
2022-11-17T06:22:10.439Z,3.67
2022-11-17T06:24:34.645Z,2.83
2022-11-17T06:27:02.590Z,3.47
2022-11-17T06:29:30.924Z,2.10
2022-11-17T06:31:59.220Z,2.00
2022-11-17T06:34:28.453Z,1.88
2022-11-17T06:36:56.034Z,1.60
2022-11-17T06:39:23.663Z,1.47
2022-11-17T06:41:52.599Z,1.50
2022-11-17T06:44:20.230Z,1.40
2022-11-17T06:46:49.136Z,1.50
2022-11-17T06:49:17.423Z,2.23
2022-11-17T06:51:45.707Z,1.85
2022-11-17T06:54:14.740Z,1.92
2022-11-17T06:56:42.666Z,1.80
2022-11-17T06:59:11.777Z,2.07
2022-11-17T07:01:39.407Z,2.03
2022-11-17T07:04:07.650Z,2.60
2022-11-17T07:06:37.314Z,2.60
2022-11-17T07:09:05.077Z,3.00
2022-11-17T07:11:36.116Z,2.50
2022-11-17T07:14:03.748Z,3.73
2022-11-17T07:16:32.855Z,3.50
2022-11-17T07:19:03.373Z,3.67
2022-11-17T07:21:31.175Z,3.63
2022-11-17T07:23:58.905Z,3.70
2022-11-17T07:26:26.579Z,3.50
2022-11-17T07:28:54.259Z,3.57
2022-11-17T07:31:21.922Z,3.23
2022-11-17T07:33:51.043Z,3.80
2022-11-17T07:36:18.619Z,2.80
2022-11-17T07:38:46.350Z,2.83
2022-11-17T07:41:15.666Z,2.50
2022-11-17T07:43:43.595Z,2.80
2022-11-17T07:46:13.420Z,2.90
2022-11-17T07:48:41.740Z,2.60
2022-11-17T07:51:12.285Z,2.63
2022-11-17T07:53:39.914Z,2.17
2022-11-17T07:56:09.995Z,1.77
2022-11-17T07:58:38.621Z,1.60
2022-11-17T08:01:07.237Z,1.90
2022-11-17T08:03:35.281Z,1.90
2022-11-17T08:06:03.504Z,1.30
2022-11-17T08:08:32.940Z,1.67
2022-11-17T08:11:03.023Z,1.80
2022-11-17T08:13:30.909Z,2.10
2022-11-17T08:15:59.998Z,1.60
2022-11-17T08:18:28.717Z,2.10
2022-11-17T08:21:03.301Z,2.60
2022-11-17T08:23:32.624Z,2.20
2022-11-17T08:26:00.529Z,1.70
2022-11-17T08:28:28.256Z,1.92
2022-11-17T08:30:55.971Z,2.20
2022-11-17T08:33:23.685Z,2.20
2022-11-17T08:35:51.460Z,1.90
2022-11-17T08:38:19.146Z,2.40
2022-11-17T08:40:48.252Z,1.90
2022-11-17T08:43:15.852Z,2.10
2022-11-17T08:45:43.915Z,2.37
2022-11-17T08:48:11.569Z,2.20
2022-11-17T08:50:39.177Z,2.40
2022-11-17T08:53:06.839Z,2.20
2022-11-17T08:55:41.001Z,2.40
2022-11-17T08:58:12.239Z,2.30
2022-11-17T09:00:40.062Z,2.60
2022-11-17T09:03:08.706Z,2.80
2022-11-17T09:05:40.164Z,2.45
2022-11-17T09:08:38.023Z,2.40
2022-11-17T09:10:56.022Z,2.33
2022-11-17T09:13:25.328Z,2.40
2022-11-17T09:15:53.228Z,2.40
2022-11-17T09:18:20.881Z,2.30
2022-11-17T09:20:48.555Z,2.60
2022-11-17T09:23:16.102Z,2.47
2022-11-17T09:25:43.725Z,2.30
2022-11-17T09:28:11.336Z,2.00
2022-11-17T09:30:40.284Z,2.33
2022-11-17T09:33:07.910Z,2.17
2022-11-17T09:35:35.519Z,2.30
2022-11-17T09:38:03.119Z,2.10
2022-11-17T09:40:37.539Z,2.70
2022-11-17T09:43:09.642Z,2.80
2022-11-17T09:45:40.075Z,2.07
2022-11-17T09:48:40.111Z,2.20
2022-11-17T09:51:05.467Z,2.37
2022-11-17T09:53:44.629Z,1.70
2022-11-17T09:56:14.568Z,2.13
2022-11-17T09:58:46.867Z,2.40
2022-11-17T10:01:18.891Z,2.30
2022-11-17T10:03:48.259Z,2.20
2022-11-17T10:06:20.341Z,2.23
2022-11-17T10:08:55.928Z,2.40
2022-11-17T10:11:32.560Z,1.70
2022-11-17T10:14:03.776Z,2.07
2022-11-17T10:16:33.008Z,2.43
2022-11-17T10:19:03.708Z,2.20
2022-11-17T10:21:31.709Z,2.50
2022-11-17T10:24:00.690Z,2.40
2022-11-17T10:26:28.369Z,2.50
2022-11-17T10:29:09.870Z,2.50
2022-11-17T10:31:43.944Z,2.50
2022-11-17T10:34:13.209Z,2.40
2022-11-17T10:36:48.824Z,2.83
2022-11-17T10:39:36.841Z,2.83
2022-11-17T10:42:20.307Z,2.65
2022-11-17T10:44:52.356Z,2.90
2022-11-17T10:47:30.868Z,2.80
2022-11-17T10:50:16.176Z,3.88
2022-11-17T10:52:43.885Z,2.87
2022-11-17T10:55:20.523Z,3.23
2022-11-17T10:57:53.164Z,3.20
2022-11-17T11:00:30.946Z,3.30
2022-11-17T11:03:16.176Z,2.60
2022-11-17T11:06:05.598Z,3.30
2022-11-17T11:08:45.715Z,2.93
2022-11-17T11:11:21.592Z,3.00
2022-11-17T11:13:57.157Z,3.07
2022-11-17T11:16:26.916Z,2.30
2022-11-17T11:18:56.987Z,2.43
2022-11-17T11:21:48.405Z,2.30
2022-11-17T11:24:23.878Z,2.60
2022-11-17T11:27:04.336Z,2.30
2022-11-17T11:29:46.086Z,2.43
2022-11-17T11:32:24.995Z,3.30
2022-11-17T11:35:19.707Z,2.30
2022-11-17T11:37:57.299Z,3.40
2022-11-17T11:40:30.127Z,3.20
2022-11-17T11:43:15.163Z,2.63
2022-11-17T11:45:48.413Z,2.83
2022-11-17T11:48:23.890Z,2.70
2022-11-17T11:50:59.511Z,2.47
2022-11-17T11:53:35.963Z,2.70
2022-11-17T11:56:15.141Z,2.80
2022-11-17T11:58:48.077Z,2.70
2022-11-17T12:01:17.768Z,2.77
2022-11-17T12:03:55.511Z,2.53
2022-11-17T12:06:43.130Z,3.00
2022-11-17T12:09:37.307Z,2.80
2022-11-17T12:12:09.578Z,3.00
2022-11-17T12:14:38.690Z,2.30
2022-11-17T12:17:17.112Z,2.40
2022-11-17T12:19:57.222Z,2.30
2022-11-17T12:23:04.640Z,2.70
2022-11-17T12:25:35.902Z,2.53
2022-11-17T12:28:29.540Z,2.83
2022-11-17T12:30:59.221Z,2.60
2022-11-17T12:34:00.113Z,2.57
2022-11-17T12:36:31.640Z,2.90
2022-11-17T12:39:01.846Z,2.70
2022-11-17T12:42:07.504Z,2.70
2022-11-17T12:44:50.692Z,2.20
2022-11-17T12:47:21.392Z,2.30
2022-11-17T12:50:04.174Z,2.90
2022-11-17T12:52:41.612Z,2.00
2022-11-17T12:55:21.790Z,2.60
2022-11-17T12:57:55.676Z,2.50
2022-11-17T13:00:24.588Z,2.43
2022-11-17T13:03:06.448Z,2.10
2022-11-17T13:05:34.044Z,2.70
2022-11-17T13:08:27.197Z,2.17
2022-11-17T13:11:05.184Z,2.03
2022-11-17T13:13:36.788Z,2.63
2022-11-17T13:16:05.764Z,2.87
2022-11-17T13:18:36.595Z,3.15
2022-11-17T13:21:05.222Z,2.87
2022-11-17T13:23:34.494Z,3.75
2022-11-17T13:26:21.344Z,2.40
2022-11-17T13:28:50.435Z,2.80
2022-11-17T13:31:20.328Z,2.57
2022-11-17T13:33:58.848Z,2.77
2022-11-17T13:36:27.314Z,2.78
2022-11-17T13:38:57.251Z,2.50
2022-11-17T13:41:26.735Z,2.27
2022-11-17T13:43:55.943Z,3.03
2022-11-17T13:46:23.686Z,2.90
2022-11-17T13:48:52.358Z,2.40
2022-11-17T13:51:27.736Z,2.42
2022-11-17T13:53:57.973Z,2.10
2022-11-17T13:56:35.174Z,3.47
2022-11-17T13:59:06.179Z,2.67
2022-11-17T14:01:34.017Z,2.27
2022-11-17T14:04:20.176Z,2.58
2022-11-17T14:06:59.861Z,3.13
2022-11-17T14:09:29.324Z,2.40
2022-11-17T14:11:59.185Z,2.50
2022-11-17T14:14:35.701Z,2.67
2022-11-17T14:17:12.791Z,2.40
2022-11-17T14:19:40.843Z,2.63
2022-11-17T14:22:30.884Z,2.40
2022-11-17T14:24:59.154Z,2.60
2022-11-17T14:27:40.667Z,2.40
2022-11-17T14:30:13.739Z,2.77
2022-11-17T14:32:41.340Z,2.17
2022-11-17T14:35:13.310Z,2.33
2022-11-17T14:37:41.498Z,2.07
2022-11-17T14:40:14.445Z,2.60
2022-11-17T14:42:43.469Z,1.70
2022-11-17T14:45:13.789Z,2.40
2022-11-17T14:47:41.627Z,2.30
2022-11-17T14:50:13.770Z,2.30
2022-11-17T14:52:42.432Z,3.00
2022-11-17T14:55:10.705Z,2.00
2022-11-17T14:57:38.389Z,2.35
2022-11-17T15:00:13.423Z,2.00
2022-11-17T15:02:43.746Z,2.23
2022-11-17T15:05:11.844Z,2.17
2022-11-17T15:07:39.575Z,2.00
2022-11-17T15:10:08.872Z,2.70
2022-11-17T15:12:36.711Z,2.10
2022-11-17T15:15:04.986Z,2.23
2022-11-17T15:17:34.081Z,1.63
2022-11-17T15:20:01.815Z,2.03
2022-11-17T15:22:29.593Z,1.70
2022-11-17T15:24:57.213Z,1.80
2022-11-17T15:27:24.922Z,2.00
2022-11-17T15:29:52.587Z,1.73
2022-11-17T15:32:20.218Z,1.73
2022-11-17T15:34:49.251Z,2.07
2022-11-17T15:37:17.683Z,1.90
2022-11-17T15:39:45.321Z,1.75
2022-11-17T15:42:13.060Z,1.33
2022-11-17T15:44:40.731Z,1.80
2022-11-17T15:47:08.379Z,1.90
2022-11-17T15:49:35.962Z,1.70
2022-11-17T15:52:05.568Z,1.57
2022-11-17T15:54:33.208Z,1.67
2022-11-17T15:57:02.771Z,1.60
2022-11-17T15:59:30.564Z,1.77
2022-11-17T16:01:58.157Z,1.97
2022-11-17T16:04:25.768Z,1.50
2022-11-17T16:06:54.515Z,1.80
2022-11-17T16:09:23.524Z,1.67
2022-11-17T16:11:51.438Z,1.70
2022-11-17T16:14:19.117Z,1.58
2022-11-17T16:16:48.036Z,1.70
2022-11-17T16:19:16.052Z,1.70
2022-11-17T16:21:44.591Z,1.60
2022-11-17T16:24:12.753Z,1.55
2022-11-17T16:26:41.824Z,2.00
2022-11-17T16:29:09.818Z,1.50
2022-11-17T16:31:38.523Z,1.60
2022-11-17T16:34:11.528Z,1.88
2022-11-17T16:36:40.646Z,1.60
2022-11-17T16:39:11.599Z,1.63
2022-11-17T16:41:41.971Z,1.50
2022-11-17T16:44:12.173Z,1.70
2022-11-17T16:46:42.108Z,1.70
2022-11-17T16:49:12.749Z,1.87
2022-11-17T16:51:40.720Z,2.27
2022-11-17T16:54:12.339Z,1.88
2022-11-17T16:56:41.356Z,1.80
2022-11-17T16:59:11.135Z,1.70
2022-11-17T17:01:39.011Z,1.60
2022-11-17T17:04:09.045Z,1.58
2022-11-17T17:06:39.585Z,1.70
2022-11-17T17:09:09.325Z,1.80
2022-11-17T17:11:37.895Z,1.70
2022-11-17T17:14:09.048Z,2.03
2022-11-17T17:16:38.051Z,1.80
2022-11-17T17:19:07.922Z,1.70
2022-11-17T17:21:36.599Z,1.80
2022-11-17T17:24:05.067Z,1.83
2022-11-17T17:26:33.777Z,2.00
2022-11-17T17:29:02.718Z,1.95
2022-11-17T17:31:33.277Z,1.90
2022-11-17T17:34:01.027Z,2.63
2022-11-17T17:36:29.739Z,2.57
2022-11-17T17:39:01.555Z,1.88
2022-11-17T17:41:30.745Z,2.50
2022-11-17T17:44:00.032Z,2.20
2022-11-17T17:46:29.599Z,1.97
2022-11-17T17:48:59.279Z,2.03
2022-11-17T17:51:28.679Z,1.90
2022-11-17T17:53:58.080Z,1.90
2022-11-17T17:56:26.523Z,2.00
2022-11-17T17:58:55.556Z,1.80
2022-11-17T18:01:25.255Z,2.10
2022-11-17T18:03:54.762Z,1.60
2022-11-17T18:06:23.769Z,1.90
2022-11-17T18:08:51.365Z,1.90
2022-11-17T18:11:21.207Z,1.77
2022-11-17T18:13:50.578Z,1.80
2022-11-17T18:16:21.429Z,1.97
2022-11-17T18:18:49.785Z,2.00
2022-11-17T18:21:19.827Z,2.00
2022-11-17T18:23:48.917Z,1.90
2022-11-17T18:26:19.623Z,1.60
2022-11-17T18:28:52.646Z,1.60
2022-11-17T18:31:20.963Z,1.70
2022-11-17T18:33:51.930Z,2.13
2022-11-17T18:36:19.931Z,1.70
2022-11-17T18:38:50.863Z,1.65
2022-11-17T18:41:18.903Z,2.03
2022-11-17T18:43:47.199Z,2.05
2022-11-17T18:46:16.979Z,1.70
2022-11-17T18:48:47.677Z,1.80
2022-11-17T18:51:20.047Z,1.90
2022-11-17T18:53:50.212Z,2.10
2022-11-17T18:56:20.114Z,1.93
2022-11-17T18:58:48.204Z,1.67
2022-11-17T19:01:17.406Z,1.70
2022-11-17T19:03:47.550Z,1.87
2022-11-17T19:06:16.957Z,1.83
2022-11-17T19:08:45.353Z,1.60
2022-11-17T19:11:14.529Z,1.85
2022-11-17T19:13:43.294Z,1.93
2022-11-17T19:18:41.044Z,1.80
2022-11-17T19:21:11.337Z,1.75
2022-11-17T19:23:40.544Z,2.00
2022-11-17T19:26:10.844Z,2.00
2022-11-17T19:28:40.241Z,1.77
2022-11-17T19:31:10.028Z,1.77
2022-11-17T19:33:39.225Z,2.03
2022-11-17T19:36:09.000Z,1.83
2022-11-17T19:38:38.459Z,1.90
2022-11-17T19:41:07.176Z,1.93
2022-11-17T19:43:38.984Z,2.55
2022-11-17T19:46:12.244Z,1.83
2022-11-17T19:48:40.375Z,1.70
2022-11-17T19:51:14.363Z,2.10
2022-11-17T19:53:42.077Z,1.90
2022-11-17T19:56:10.264Z,1.83
2022-11-17T19:58:37.815Z,2.67
2022-11-17T20:01:11.858Z,2.00
2022-11-17T20:03:40.215Z,1.90
2022-11-17T20:06:08.880Z,2.13
2022-11-17T20:08:36.463Z,2.00
2022-11-17T20:11:05.992Z,2.20
2022-11-17T20:13:34.565Z,1.97
2022-11-17T20:16:06.177Z,2.65
2022-11-17T20:18:37.979Z,2.10
2022-11-17T20:21:07.800Z,2.00
2022-11-17T20:23:36.511Z,2.73
2022-11-17T20:26:05.712Z,2.30
2022-11-17T20:28:34.491Z,2.20
2022-11-17T20:33:34.791Z,2.30
2022-11-17T20:36:03.798Z,1.92
2022-11-17T20:38:31.456Z,2.30
2022-11-17T20:40:59.843Z,2.03
2022-11-17T20:43:28.541Z,2.25
2022-11-17T20:45:57.726Z,2.17
2022-11-17T20:48:26.423Z,1.97
2022-11-17T20:53:27.571Z,1.87
2022-11-17T20:55:56.553Z,2.30
2022-11-17T20:58:24.650Z,2.10
2022-11-17T21:00:52.864Z,2.08
2022-11-17T21:03:20.922Z,1.90
2022-11-17T21:05:58.683Z,2.38
2022-11-17T21:08:31.214Z,1.75
2022-11-17T21:10:59.985Z,2.00
2022-11-17T21:16:07.489Z,2.65
2022-11-17T21:18:36.217Z,2.13
2022-11-17T21:21:08.524Z,2.03
2022-11-17T21:23:38.126Z,2.50
2022-11-17T21:26:07.258Z,2.03
2022-11-17T21:28:35.193Z,2.53
2022-11-17T21:31:06.389Z,2.55
2022-11-17T21:33:34.220Z,2.73
2022-11-17T21:36:02.771Z,2.80
2022-11-17T21:38:30.548Z,2.50
2022-11-17T21:41:04.303Z,2.40
2022-11-17T21:43:32.567Z,2.70
2022-11-17T21:46:04.208Z,3.00
2022-11-17T21:48:32.147Z,2.90
2022-11-17T21:51:00.412Z,2.58
2022-11-17T21:53:28.450Z,3.13
2022-11-17T21:56:01.465Z,2.53
2022-11-17T21:58:30.691Z,2.77
2022-11-17T22:00:58.895Z,3.00
2022-11-17T22:03:27.530Z,2.70
2022-11-17T22:06:00.962Z,3.28
2022-11-17T22:08:29.867Z,3.13
2022-11-17T22:10:57.596Z,3.40
2022-11-17T22:13:25.279Z,3.27
2022-11-17T22:15:54.275Z,3.10
2022-11-17T22:18:21.927Z,3.47
2022-11-17T22:20:51.968Z,2.90
2022-11-17T22:23:19.611Z,3.13
2022-11-17T22:25:54.359Z,3.37
2022-11-17T22:28:22.780Z,3.37
2022-11-17T22:30:50.579Z,2.80
2022-11-17T22:33:20.090Z,3.50
2022-11-17T22:35:47.797Z,3.63
2022-11-17T22:38:16.038Z,3.83
2022-11-17T22:40:43.972Z,7.68
2022-11-17T22:43:15.437Z,3.53
2022-11-17T22:45:43.577Z,3.77
2022-11-17T22:48:11.217Z,4.22
2022-11-17T22:50:40.198Z,3.90
2022-11-17T22:53:07.841Z,4.27
2022-11-17T22:55:35.460Z,3.50
2022-11-17T22:58:03.205Z,4.23
2022-11-17T23:00:30.939Z,3.93
2022-11-17T23:02:58.635Z,3.67
2022-11-17T23:05:26.405Z,4.87
2022-11-17T23:07:55.394Z,4.00
2022-11-17T23:10:23.004Z,3.93
2022-11-17T23:12:51.237Z,3.90
2022-11-17T23:15:19.150Z,3.88
2022-11-17T23:17:46.778Z,4.00
2022-11-17T23:20:14.696Z,3.77
2022-11-17T23:22:42.435Z,3.97
2022-11-17T23:25:11.614Z,4.10
2022-11-17T23:27:39.212Z,3.67
2022-11-17T23:30:08.098Z,3.43
2022-11-17T23:35:03.193Z,3.43
2022-11-17T23:37:30.815Z,3.57
2022-11-17T23:39:58.484Z,3.77
2022-11-17T23:42:31.495Z,3.27
2022-11-17T23:45:00.247Z,3.40
2022-11-17T23:47:27.934Z,3.43
2022-11-17T23:49:55.539Z,3.07
2022-11-17T23:52:23.256Z,4.07
2022-11-17T23:54:50.926Z,3.80
2022-11-17T23:57:18.609Z,3.67
2022-11-17T23:59:47.656Z,3.73
